Details From USSS - Koltsovo
To UWKD - Kazan
Flight Number -
Tags Generated
Created
Modified
Stats Distance 391 nm / 723 km
Max Altitude 0 ft / 0 m
Waypoints 3
Social Downloads 6
Likes 0
Share VATSIM

Download

Looking for another format? Having issues loading an existing format? Contact us
Advertisement - Login to hide

Notes

Generated

Route

USSS GAMSA UWKD

ID Type Via Altitude Latitude Longitude Leg Dist Tot Dist Heading (true) Name
O USSS APT - 0 ft / 0 m 56.74481˚ 60.78140˚ - 0 nm - -
GAMSA FIX - 0 ft / 0 m 55.65000˚ 49.90000˚ 369 nm 369 nm 264° / 255° -
O UWKD APT - 0 ft / 0 m 55.61063˚ 49.26681˚ 21 nm 390 nm 264° / 263° -

Altitude Profile

Advertisement - Login to hide

Weather


0- 5 10 15 20 25 30 35+ Temperature / ° C

Clouds and Precipitation
Forecast for 2017-12-16 12:00 UTC. Updated 2 hours ago

Ground ~20,000 ft ~40,000 ft Winds

USSS

Details ICAO USSS (SVX)
Name KOLTSOVO
Region Russia
Timezone Asia/Yekaterinburg (UTC+5.0)
Stats Elevation 764 ft / 233 m (AMSL)
Location 56.743108° 60.802727°
Runways 2
Magnetic Variation 14.864° E

METAR

USSS 161300Z 17003MPS 6000 NSC M09/M11 Q1037 R26R/290040 NOSIG RMK QFE757/1009

Decode

TAF

TAF USSS 161057Z 1612/1712 15003MPS 2100 BR SCT015 BECMG 1706/1708 9999 NSW BECMG 1710/1711 5000 BR

Decode

Departure Runways

ID Width Length Bearing (true) Bearing (mag) Surface Threshold Offset Overrun Length
08L 148 ft / 45 m 8,172 ft / 2,491 m 90.13° 75.27° Asphalt 0 ft / 0 m 230 ft / 70 m
08R 174 ft / 53 m 9,861 ft / 3,006 m 94.09° 79.23° Concrete 246 ft / 75 m 165 ft / 50 m
26L 174 ft / 53 m 9,861 ft / 3,006 m 274.14° 259.28° Concrete 1,066 ft / 325 m 165 ft / 50 m
26R 148 ft / 45 m 8,172 ft / 2,491 m 270.17° 255.31° Asphalt 0 ft / 0 m 220 ft / 67 m

UWKD

Details ICAO UWKD (KZN)
Name KAZAN
Region Russia
Timezone Europe/Moscow (UTC+3.0)
Stats Elevation 411 ft / 125 m (AMSL)
Location 55.606544° 49.279689°
Runways 2
Magnetic Variation 13.288° E

METAR

UWKD 161300Z 16008G13MPS 9000 DRSN OVC022 M07/M10 Q1028 R11/710050 NOSIG RMK QFE761/1014

Decode

TAF

TAF UWKD 161055Z 1612/1712 16007G12MPS 3100 -SN BLSN OVC015 TXM05/1615Z TNM10/1704Z TEMPO 1612/1618 15009G14MPS 1000 SN BLSN OVC005 TEMPO 1618/1624 1000 SHSNRA BLSN BKN005 BKN010CB

Decode

Destination Runways

ID Width Length Bearing (true) Bearing (mag) Surface Threshold Offset Overrun Length
11L 144 ft / 44 m 12,189 ft / 3,715 m 126.46° 113.17° Concrete 837 ft / 255 m 0 ft / 0 m
11R 148 ft / 45 m 8,174 ft / 2,492 m 124.48° 111.19° Concrete 0 ft / 0 m 180 ft / 55 m
29L 148 ft / 45 m 8,174 ft / 2,492 m 304.51° 291.22° Concrete 0 ft / 0 m 180 ft / 55 m
29R 144 ft / 44 m 12,189 ft / 3,715 m 306.50° 293.21° Concrete 0 ft / 0 m 160 ft / 49 m

Popular Alternatives